Terminal Aerodrome Forecast
Issued by NWS

Home | Current Version | Previous Version | Text Only | Print | Product List | Glossary On
Versions: 1 2 3 4 5 6 7 8 9 10 11 12 13 14 15 16 17 18 19 20 21 22 23 24 25 26 27 28
000
FTUS46 KMTR 260145 AAA
TAFSFO
TAF AMD
KSFO 260145Z 2602/2706 27018G27KT P6SM FEW010 BKN018
      TEMPO 2602/2605 FEW010 SCT018
     FM260500 28010KT P6SM OVC015
     FM261830 28009KT P6SM SCT015
     FM262000 28015G25KT P6SM FEW015
     FM270400 28015KT P6SM FEW011=

USA.gov is the U.S. government's official web portal to all federal, state and local government web resources and services.